createdAt,value
2022-11-30T00:02:11.613Z,58.90
2022-11-30T00:04:41.473Z,59.00
2022-11-30T00:07:11.418Z,59.00
2022-11-30T00:09:41.201Z,58.90
2022-11-30T00:12:13.765Z,58.90
2022-11-30T00:14:43.587Z,59.10
2022-11-30T00:17:13.524Z,59.00
2022-11-30T00:19:43.262Z,59.10
2022-11-30T00:22:13.139Z,59.50
2022-11-30T00:24:42.928Z,59.50
2022-11-30T00:27:17.759Z,59.70
2022-11-30T00:29:47.559Z,59.80
2022-11-30T00:32:17.349Z,60.70
2022-11-30T00:34:47.296Z,60.50
2022-11-30T00:37:17.554Z,60.70
2022-11-30T00:39:47.334Z,60.80
2022-11-30T00:42:19.894Z,61.20
2022-11-30T00:44:49.681Z,61.30
2022-11-30T00:47:19.500Z,61.30
2022-11-30T00:49:49.352Z,61.40
2022-11-30T00:52:19.227Z,61.40
2022-11-30T00:54:49.251Z,61.70
2022-11-30T00:57:21.743Z,62.00
2022-11-30T00:59:51.566Z,61.70
2022-11-30T01:02:21.495Z,61.60
2022-11-30T01:04:51.304Z,62.20
2022-11-30T01:07:21.174Z,62.50
2022-11-30T01:09:51.004Z,62.10
2022-11-30T01:12:23.532Z,62.30
2022-11-30T01:14:53.293Z,62.40
2022-11-30T01:17:23.060Z,62.50
2022-11-30T01:19:52.817Z,62.60
2022-11-30T01:22:22.635Z,62.70
2022-11-30T01:24:52.428Z,62.90
2022-11-30T01:27:24.838Z,62.90
2022-11-30T01:29:54.692Z,62.80
2022-11-30T01:32:24.532Z,62.80
2022-11-30T01:34:54.308Z,62.80
2022-11-30T01:37:24.112Z,62.80
2022-11-30T01:39:53.913Z,62.80
2022-11-30T01:42:26.364Z,62.80
2022-11-30T01:44:58.160Z,62.80
2022-11-30T01:47:34.638Z,62.80
2022-11-30T01:50:08.593Z,62.80
2022-11-30T01:52:41.333Z,62.80
2022-11-30T01:55:18.789Z,62.80
2022-11-30T01:57:54.286Z,62.90
2022-11-30T02:00:24.538Z,62.90
2022-11-30T02:03:02.447Z,62.80
2022-11-30T02:05:32.902Z,62.90
2022-11-30T02:08:03.662Z,62.90
2022-11-30T02:10:35.987Z,62.90
2022-11-30T02:13:26.604Z,62.90
2022-11-30T02:16:06.155Z,63.00
2022-11-30T02:18:46.218Z,63.00
2022-11-30T02:21:20.025Z,63.00
2022-11-30T02:24:23.143Z,63.10
2022-11-30T02:27:02.620Z,63.10
2022-11-30T02:29:38.838Z,63.10
2022-11-30T02:32:12.914Z,63.40
2022-11-30T02:34:46.389Z,63.40
2022-11-30T02:37:18.779Z,63.30
2022-11-30T02:39:48.596Z,63.50
2022-11-30T02:42:18.802Z,63.30
2022-11-30T02:44:54.355Z,63.40
2022-11-30T02:47:29.188Z,63.30
2022-11-30T02:50:03.776Z,63.40
2022-11-30T02:52:34.858Z,63.50
2022-11-30T02:55:06.803Z,63.20
2022-11-30T02:57:37.049Z,63.40
2022-11-30T03:00:11.967Z,63.60
2022-11-30T03:02:42.583Z,63.60
2022-11-30T03:05:13.126Z,63.80
2022-11-30T03:07:42.942Z,63.80
2022-11-30T03:10:13.727Z,63.80
2022-11-30T03:12:43.484Z,63.80
2022-11-30T03:15:16.931Z,63.70
2022-11-30T03:17:46.785Z,63.80
2022-11-30T03:20:16.622Z,63.80
2022-11-30T03:22:46.424Z,63.90
2022-11-30T03:25:16.311Z,63.80
2022-11-30T03:27:46.129Z,63.90
2022-11-30T03:30:18.979Z,63.80
2022-11-30T03:32:48.764Z,63.90
2022-11-30T03:35:18.712Z,64.00
2022-11-30T03:37:49.546Z,64.00
2022-11-30T03:40:19.928Z,64.60
2022-11-30T03:42:49.644Z,64.00
2022-11-30T03:45:22.052Z,63.60
2022-11-30T03:47:51.905Z,63.90
2022-11-30T03:50:21.749Z,64.00
2022-11-30T03:52:51.708Z,64.00
2022-11-30T03:55:21.473Z,64.00
2022-11-30T03:57:52.156Z,64.20
2022-11-30T04:00:25.036Z,64.10
2022-11-30T04:02:54.820Z,64.00
2022-11-30T04:05:24.992Z,64.20
2022-11-30T04:07:54.961Z,64.00
2022-11-30T04:10:24.855Z,64.10
2022-11-30T04:12:54.605Z,64.20
2022-11-30T04:15:27.192Z,64.00
2022-11-30T04:17:56.982Z,64.10
2022-11-30T04:20:26.820Z,64.20
2022-11-30T04:22:56.624Z,64.00
2022-11-30T04:25:26.624Z,64.40
2022-11-30T04:27:56.442Z,64.30
2022-11-30T04:30:29.129Z,64.10
2022-11-30T04:32:58.889Z,64.40
2022-11-30T04:35:28.712Z,64.30
2022-11-30T04:37:58.548Z,64.30
2022-11-30T04:40:28.362Z,64.20
2022-11-30T04:42:58.197Z,64.20
2022-11-30T04:45:35.194Z,64.30
2022-11-30T04:48:05.912Z,64.20
2022-11-30T04:50:35.824Z,64.40
2022-11-30T04:53:05.868Z,64.50
2022-11-30T04:55:37.192Z,64.80
2022-11-30T04:58:07.098Z,64.90
2022-11-30T05:00:40.383Z,64.90
2022-11-30T05:03:10.447Z,65.00
2022-11-30T05:05:40.426Z,64.90
2022-11-30T05:08:10.264Z,64.80
2022-11-30T05:10:40.152Z,64.90
2022-11-30T05:13:10.296Z,65.00
2022-11-30T05:15:42.808Z,65.00
2022-11-30T05:18:12.588Z,65.00
2022-11-30T05:20:42.407Z,65.00
2022-11-30T05:23:12.237Z,64.90
2022-11-30T05:25:42.081Z,65.00
2022-11-30T05:28:12.177Z,64.90
2022-11-30T05:30:45.831Z,65.00
2022-11-30T05:33:16.121Z,65.00
2022-11-30T05:35:46.500Z,65.00
2022-11-30T05:38:16.384Z,65.10
2022-11-30T05:40:46.205Z,65.10
2022-11-30T05:43:16.099Z,65.20
2022-11-30T05:45:48.535Z,64.80
2022-11-30T05:48:18.450Z,65.00
2022-11-30T05:50:48.218Z,65.10
2022-11-30T05:53:17.992Z,64.80
2022-11-30T05:55:48.200Z,65.00
2022-11-30T05:58:18.096Z,65.70
2022-11-30T06:00:51.924Z,65.00
2022-11-30T06:03:21.964Z,65.00
2022-11-30T06:05:53.173Z,65.10
2022-11-30T06:08:23.043Z,65.20
2022-11-30T06:10:53.447Z,65.40
2022-11-30T06:13:28.618Z,65.00
2022-11-30T06:16:04.588Z,64.90
2022-11-30T06:18:35.463Z,65.10
2022-11-30T06:21:06.664Z,65.00
2022-11-30T06:23:36.928Z,65.10
2022-11-30T06:26:07.492Z,64.90
2022-11-30T06:28:37.852Z,65.20
2022-11-30T06:31:11.907Z,64.90
2022-11-30T06:33:41.786Z,64.90
2022-11-30T06:36:12.508Z,65.00
2022-11-30T06:38:42.293Z,65.10
2022-11-30T06:41:13.131Z,65.10
2022-11-30T06:43:43.056Z,65.20
2022-11-30T06:46:15.607Z,65.10
2022-11-30T06:48:51.361Z,64.80
2022-11-30T06:51:21.918Z,65.10
2022-11-30T06:53:51.792Z,64.90
2022-11-30T06:56:22.118Z,64.90
2022-11-30T06:58:54.387Z,64.80
2022-11-30T07:01:26.979Z,64.80
2022-11-30T07:03:56.824Z,64.90
2022-11-30T07:06:26.620Z,64.80
2022-11-30T07:08:56.424Z,64.90
2022-11-30T07:11:26.265Z,64.60
2022-11-30T07:13:56.036Z,64.70
2022-11-30T07:16:28.654Z,64.80
2022-11-30T07:18:58.689Z,64.70
2022-11-30T07:21:28.520Z,65.20
2022-11-30T07:24:10.809Z,65.00
2022-11-30T07:26:40.699Z,65.10
2022-11-30T07:29:10.537Z,64.80
2022-11-30T07:31:42.974Z,64.90
2022-11-30T07:34:13.449Z,64.90
2022-11-30T07:36:43.288Z,64.70
2022-11-30T07:39:13.195Z,64.70
2022-11-30T07:41:43.396Z,64.70
2022-11-30T07:44:14.155Z,64.40
2022-11-30T07:46:46.535Z,64.50
2022-11-30T07:49:16.899Z,64.60
2022-11-30T07:51:46.897Z,64.50
2022-11-30T07:54:16.660Z,64.20
2022-11-30T07:56:46.443Z,63.80
2022-11-30T07:59:16.367Z,63.80
2022-11-30T08:01:48.780Z,63.20
2022-11-30T08:04:18.610Z,63.60
2022-11-30T08:06:48.433Z,63.10
2022-11-30T08:09:20.858Z,63.20
2022-11-30T08:11:51.687Z,63.00
2022-11-30T08:14:21.544Z,63.00
2022-11-30T08:16:54.957Z,63.10
2022-11-30T08:19:24.776Z,63.00
2022-11-30T08:21:54.600Z,62.60
2022-11-30T08:24:24.434Z,62.20
2022-11-30T08:26:55.020Z,61.30
2022-11-30T08:29:24.840Z,60.50
2022-11-30T08:31:57.660Z,59.40
2022-11-30T08:34:27.480Z,59.10
2022-11-30T08:36:57.250Z,57.70
2022-11-30T08:39:28.709Z,55.00
2022-11-30T08:41:58.578Z,53.50
2022-11-30T08:44:28.361Z,50.80
2022-11-30T08:47:00.741Z,50.70
2022-11-30T08:49:30.992Z,47.90
2022-11-30T08:52:17.969Z,47.90
2022-11-30T08:54:49.849Z,45.80
2022-11-30T08:57:21.535Z,46.40
2022-11-30T08:59:51.500Z,43.20
2022-11-30T09:02:23.998Z,42.10
2022-11-30T09:04:54.060Z,39.70
2022-11-30T09:07:23.857Z,39.70
2022-11-30T09:09:53.734Z,39.80
2022-11-30T09:12:23.661Z,38.40
2022-11-30T09:15:01.471Z,37.20
2022-11-30T09:17:34.545Z,37.20
2022-11-30T09:20:04.671Z,38.40
2022-11-30T09:22:34.459Z,38.70
2022-11-30T09:25:04.256Z,37.60
2022-11-30T09:27:35.197Z,36.60
2022-11-30T09:30:05.150Z,36.50
2022-11-30T09:32:37.586Z,35.30
2022-11-30T09:35:12.582Z,33.80
2022-11-30T09:37:42.977Z,31.90
2022-11-30T09:40:15.766Z,31.20
2022-11-30T09:42:54.548Z,31.10
2022-11-30T09:45:30.098Z,29.00
2022-11-30T09:48:21.645Z,25.30
2022-11-30T09:50:52.920Z,26.00
2022-11-30T09:53:30.033Z,22.90
2022-11-30T09:56:01.586Z,21.00
2022-11-30T09:58:42.216Z,19.80
2022-11-30T10:01:18.766Z,20.50
2022-11-30T10:03:51.791Z,20.90
2022-11-30T10:06:30.846Z,21.40
2022-11-30T10:09:25.755Z,20.90
2022-11-30T10:12:02.856Z,23.30
2022-11-30T10:15:01.080Z,20.90
2022-11-30T10:17:41.202Z,22.50
2022-11-30T10:20:37.629Z,20.90
2022-11-30T10:23:21.309Z,19.80
2022-11-30T10:25:58.399Z,22.60
2022-11-30T10:28:48.169Z,25.20
2022-11-30T10:31:20.118Z,26.80
2022-11-30T10:33:53.132Z,27.70
2022-11-30T10:36:30.388Z,27.90
2022-11-30T10:39:04.550Z,28.00
2022-11-30T10:41:37.637Z,27.70
2022-11-30T10:44:14.553Z,26.40
2022-11-30T10:46:49.465Z,26.10
2022-11-30T10:49:23.512Z,26.50
2022-11-30T10:52:01.541Z,26.00
2022-11-30T10:54:34.091Z,26.70
2022-11-30T10:57:05.716Z,25.70
2022-11-30T10:59:43.834Z,26.10
2022-11-30T11:02:40.013Z,25.30
2022-11-30T11:05:19.709Z,25.20
2022-11-30T11:08:06.399Z,23.60
2022-11-30T11:10:39.131Z,24.00
2022-11-30T11:13:16.706Z,22.60
2022-11-30T11:16:00.226Z,22.80
2022-11-30T11:18:32.087Z,22.80
2022-11-30T11:21:08.159Z,22.90
2022-11-30T11:23:44.936Z,23.70
2022-11-30T11:26:20.303Z,21.00
2022-11-30T11:28:52.320Z,21.50
2022-11-30T11:31:35.988Z,22.20
2022-11-30T11:34:09.969Z,22.90
2022-11-30T11:36:39.774Z,22.70
2022-11-30T11:39:28.859Z,23.30
2022-11-30T11:42:00.451Z,23.70
2022-11-30T11:44:31.778Z,23.00
2022-11-30T11:47:03.868Z,22.30
2022-11-30T11:49:37.744Z,21.40
2022-11-30T11:52:09.191Z,21.10
2022-11-30T11:54:44.933Z,21.00
2022-11-30T11:57:17.384Z,21.00
2022-11-30T11:59:53.055Z,20.90
2022-11-30T12:02:32.189Z,21.00
2022-11-30T12:05:07.304Z,22.00
2022-11-30T12:07:44.446Z,22.30
2022-11-30T12:10:51.387Z,22.30
2022-11-30T12:13:22.089Z,20.50
2022-11-30T12:16:04.404Z,20.40
2022-11-30T12:18:41.007Z,18.70
2022-11-30T12:21:17.316Z,18.20
2022-11-30T12:24:02.550Z,17.50
2022-11-30T12:26:40.854Z,17.40
2022-11-30T12:29:23.162Z,16.30
2022-11-30T12:32:10.186Z,17.50
2022-11-30T12:34:52.279Z,13.80
2022-11-30T12:37:36.216Z,15.80
2022-11-30T12:40:18.525Z,14.90
2022-11-30T12:42:59.452Z,15.10
2022-11-30T12:45:35.186Z,14.70
2022-11-30T12:48:09.563Z,15.60
2022-11-30T12:50:48.919Z,16.50
2022-11-30T12:53:26.697Z,16.30
2022-11-30T12:56:06.132Z,15.80
2022-11-30T12:58:48.137Z,16.70
2022-11-30T13:01:34.454Z,17.10
2022-11-30T13:04:10.595Z,17.50
2022-11-30T13:06:43.705Z,17.70
2022-11-30T13:09:19.755Z,19.70
2022-11-30T13:11:55.351Z,20.50
2022-11-30T13:14:29.855Z,19.50
2022-11-30T13:17:04.045Z,20.90
2022-11-30T13:19:58.524Z,20.60
2022-11-30T13:22:39.537Z,20.60
2022-11-30T13:25:45.016Z,20.80
2022-11-30T13:28:19.657Z,21.10
2022-11-30T13:31:00.159Z,20.80
2022-11-30T13:33:51.718Z,22.50
2022-11-30T13:36:37.244Z,23.00
2022-11-30T13:39:31.536Z,23.40
2022-11-30T13:42:39.604Z,22.50
2022-11-30T13:45:29.128Z,22.70
2022-11-30T13:48:02.221Z,22.80
2022-11-30T13:50:39.875Z,23.10
2022-11-30T13:53:23.395Z,23.20
2022-11-30T13:56:10.976Z,22.90
2022-11-30T13:59:16.353Z,22.80
2022-11-30T14:01:48.821Z,23.10
2022-11-30T14:04:35.887Z,24.20
2022-11-30T14:07:09.826Z,25.30
2022-11-30T14:09:59.163Z,24.30
2022-11-30T14:12:48.283Z,24.30
2022-11-30T14:15:57.571Z,23.30
2022-11-30T14:18:43.285Z,23.30
2022-11-30T14:21:20.210Z,24.80
2022-11-30T14:24:01.759Z,24.50
2022-11-30T14:26:37.686Z,25.60
2022-11-30T14:29:16.939Z,25.30
2022-11-30T14:31:57.038Z,25.20
2022-11-30T14:34:29.992Z,25.90
2022-11-30T14:37:03.160Z,26.30
2022-11-30T14:39:37.061Z,25.90
2022-11-30T14:42:08.351Z,25.90
2022-11-30T14:44:41.997Z,25.70
2022-11-30T14:47:25.336Z,26.50
2022-11-30T14:49:57.632Z,27.50
2022-11-30T14:52:50.856Z,27.50
2022-11-30T14:55:30.028Z,27.50
2022-11-30T14:58:09.794Z,27.60
2022-11-30T15:00:41.465Z,27.50
2022-11-30T15:03:23.107Z,27.80
2022-11-30T15:05:54.989Z,27.40
2022-11-30T15:08:26.349Z,28.70
2022-11-30T15:10:58.550Z,29.30
2022-11-30T15:13:29.320Z,29.30
2022-11-30T15:15:59.254Z,29.70
2022-11-30T15:18:31.694Z,30.20
2022-11-30T15:21:04.041Z,31.00
2022-11-30T15:23:34.068Z,30.80
2022-11-30T15:26:09.117Z,31.00
2022-11-30T15:28:43.703Z,31.70
2022-11-30T15:31:16.073Z,32.60
2022-11-30T15:33:50.519Z,33.60
2022-11-30T15:36:33.155Z,34.90
2022-11-30T15:39:07.006Z,35.20
2022-11-30T15:41:38.374Z,35.40
2022-11-30T15:44:08.524Z,35.20
2022-11-30T15:46:46.318Z,35.70
2022-11-30T15:49:25.340Z,35.90
2022-11-30T15:52:04.738Z,35.60
2022-11-30T15:54:52.684Z,35.20
2022-11-30T15:57:23.230Z,35.70
2022-11-30T16:00:22.367Z,36.50
2022-11-30T16:02:52.546Z,35.70
2022-11-30T16:05:29.146Z,37.20
2022-11-30T16:08:01.389Z,37.00
2022-11-30T16:10:37.343Z,37.10
2022-11-30T16:13:08.152Z,37.20
2022-11-30T16:15:39.538Z,37.70
2022-11-30T16:18:16.813Z,38.60
2022-11-30T16:20:51.511Z,39.20
2022-11-30T16:23:22.119Z,38.90
2022-11-30T16:25:52.984Z,39.00
2022-11-30T16:28:24.203Z,39.40
2022-11-30T16:30:54.419Z,39.30
2022-11-30T16:33:26.013Z,39.40
2022-11-30T16:36:00.967Z,39.30
2022-11-30T16:38:31.195Z,39.50
2022-11-30T16:41:16.228Z,39.30
2022-11-30T16:43:47.208Z,40.40
2022-11-30T16:46:19.273Z,40.80
2022-11-30T16:48:49.473Z,41.60
2022-11-30T16:51:25.444Z,41.70
2022-11-30T16:53:55.443Z,42.10
2022-11-30T16:56:25.787Z,42.20
2022-11-30T16:58:56.122Z,41.70
2022-11-30T17:01:35.679Z,39.50
2022-11-30T17:04:14.423Z,39.30
2022-11-30T17:06:50.631Z,39.20
2022-11-30T17:09:22.897Z,37.80
2022-11-30T17:11:54.082Z,35.90
2022-11-30T17:14:24.035Z,35.50
2022-11-30T17:16:53.926Z,34.90
2022-11-30T17:19:23.802Z,33.20
2022-11-30T17:21:57.529Z,32.70
2022-11-30T17:24:27.319Z,31.90
2022-11-30T17:26:57.174Z,31.90
2022-11-30T17:29:26.948Z,31.40
2022-11-30T17:31:56.728Z,33.00
2022-11-30T17:34:26.532Z,31.60
2022-11-30T17:36:59.181Z,31.70
2022-11-30T17:39:29.016Z,29.70
2022-11-30T17:41:58.849Z,29.40
2022-11-30T17:44:28.670Z,27.20
2022-11-30T17:46:58.706Z,27.30
2022-11-30T17:49:28.431Z,27.30
2022-11-30T17:52:00.859Z,28.00
2022-11-30T17:54:30.589Z,28.00
2022-11-30T17:57:00.364Z,27.70
2022-11-30T17:59:30.256Z,27.30
2022-11-30T18:02:00.050Z,27.20
2022-11-30T18:04:29.842Z,26.80
2022-11-30T18:07:02.242Z,26.20
2022-11-30T18:09:36.624Z,26.30
2022-11-30T18:12:10.775Z,26.20
2022-11-30T18:14:40.615Z,24.50
2022-11-30T18:17:10.559Z,23.60
2022-11-30T18:19:40.454Z,22.50
2022-11-30T18:22:13.359Z,22.20
2022-11-30T18:24:43.232Z,21.30
2022-11-30T18:27:13.093Z,21.30
2022-11-30T18:29:42.858Z,22.10
2022-11-30T18:32:12.722Z,22.20
2022-11-30T18:34:42.588Z,23.80
2022-11-30T18:37:14.929Z,23.30
2022-11-30T18:39:44.709Z,23.50
2022-11-30T18:42:14.547Z,23.90
2022-11-30T18:44:44.286Z,22.70
2022-11-30T18:47:14.094Z,22.90
2022-11-30T18:49:43.904Z,22.20
2022-11-30T18:52:16.681Z,22.80
2022-11-30T18:54:46.917Z,22.10
2022-11-30T18:57:17.067Z,23.20
2022-11-30T18:59:48.740Z,23.40
2022-11-30T19:02:21.668Z,23.40
2022-11-30T19:04:51.729Z,24.20
2022-11-30T19:07:24.208Z,22.20
2022-11-30T19:09:54.041Z,21.60
2022-11-30T19:12:23.820Z,21.50
2022-11-30T19:14:54.166Z,20.90
2022-11-30T19:17:24.052Z,21.20
2022-11-30T19:19:53.916Z,19.90
2022-11-30T19:22:30.151Z,19.90
2022-11-30T19:24:59.995Z,19.90
2022-11-30T19:27:30.015Z,19.80
2022-11-30T19:30:00.042Z,19.80
2022-11-30T19:32:30.131Z,19.80
2022-11-30T19:34:59.999Z,19.40
2022-11-30T19:37:32.425Z,19.90
2022-11-30T19:40:02.207Z,19.80
2022-11-30T19:42:33.049Z,19.80
2022-11-30T19:45:02.901Z,19.80
2022-11-30T19:47:33.151Z,19.80
2022-11-30T19:50:02.911Z,19.80
2022-11-30T19:52:35.312Z,18.40
2022-11-30T19:55:05.171Z,17.80
2022-11-30T19:57:35.016Z,18.30
2022-11-30T20:00:06.558Z,18.50
2022-11-30T20:02:36.485Z,17.50
2022-11-30T20:05:06.451Z,18.30
2022-11-30T20:07:39.057Z,17.50
2022-11-30T20:10:13.244Z,18.10
2022-11-30T20:12:43.406Z,18.60
2022-11-30T20:15:13.891Z,18.20
2022-11-30T20:17:43.673Z,18.00
2022-11-30T20:20:14.785Z,19.50
2022-11-30T20:22:47.224Z,19.50
2022-11-30T20:25:17.077Z,19.40
2022-11-30T20:27:49.549Z,19.40
2022-11-30T20:30:19.711Z,18.50
2022-11-30T20:32:49.464Z,18.50
2022-11-30T20:35:19.439Z,16.60
2022-11-30T20:37:51.838Z,15.80
2022-11-30T20:40:21.996Z,13.40
2022-11-30T20:42:54.019Z,13.80
2022-11-30T20:45:23.802Z,13.60
2022-11-30T20:47:53.689Z,12.30
2022-11-30T20:50:23.639Z,11.40
2022-11-30T20:52:56.043Z,12.40
2022-11-30T20:55:25.808Z,11.00
2022-11-30T20:57:55.988Z,9.80
2022-11-30T21:00:26.047Z,9.90
2022-11-30T21:02:55.863Z,8.60
2022-11-30T21:05:25.695Z,9.70
2022-11-30T21:07:58.182Z,8.70
2022-11-30T21:10:27.983Z,8.70
2022-11-30T21:12:57.925Z,8.50
2022-11-30T21:15:27.717Z,7.50
2022-11-30T21:17:57.457Z,7.20
2022-11-30T21:20:27.340Z,7.40
2022-11-30T21:22:59.917Z,8.50
2022-11-30T21:25:29.855Z,8.00
2022-11-30T21:27:59.814Z,8.60
2022-11-30T21:30:29.634Z,8.60
2022-11-30T21:32:59.415Z,9.60
2022-11-30T21:35:29.215Z,10.10
2022-11-30T21:38:01.615Z,8.60
2022-11-30T21:40:31.452Z,9.10
2022-11-30T21:43:01.273Z,8.70
2022-11-30T21:45:31.041Z,9.00
2022-11-30T21:48:01.092Z,9.30
2022-11-30T21:50:30.955Z,8.50
2022-11-30T21:53:03.381Z,8.60
2022-11-30T21:55:33.825Z,8.40
2022-11-30T21:58:03.624Z,8.90
2022-11-30T22:00:33.360Z,8.90
2022-11-30T22:03:03.239Z,9.70
2022-11-30T22:05:33.015Z,9.70
2022-11-30T22:08:05.513Z,10.00
2022-11-30T22:10:35.327Z,10.20
2022-11-30T22:13:05.157Z,10.00
2022-11-30T22:15:34.980Z,9.60
2022-11-30T22:18:04.874Z,8.40
2022-11-30T22:20:35.055Z,9.80
2022-11-30T22:23:07.399Z,10.10
2022-11-30T22:25:37.130Z,10.10
2022-11-30T22:28:07.252Z,10.30
2022-11-30T22:30:37.128Z,10.90
2022-11-30T22:33:07.164Z,11.90
2022-11-30T22:35:36.932Z,11.90
2022-11-30T22:38:09.344Z,11.90
2022-11-30T22:40:39.125Z,11.90
2022-11-30T22:43:08.902Z,11.90
2022-11-30T22:45:38.687Z,11.90
2022-11-30T22:48:08.968Z,12.30
2022-11-30T22:50:38.768Z,11.30
2022-11-30T22:53:11.199Z,11.90
2022-11-30T22:55:46.648Z,12.40
2022-11-30T22:58:17.999Z,11.90
2022-11-30T23:00:47.753Z,11.90
2022-11-30T23:03:17.697Z,12.50
2022-11-30T23:05:47.569Z,12.30
2022-11-30T23:08:20.040Z,13.10
2022-11-30T23:10:49.915Z,12.90
2022-11-30T23:13:19.677Z,13.20
2022-11-30T23:15:50.609Z,12.20
2022-11-30T23:18:20.549Z,11.80
2022-11-30T23:20:50.294Z,13.40
2022-11-30T23:23:22.718Z,13.90
2022-11-30T23:25:53.262Z,13.10
2022-11-30T23:28:23.131Z,13.40
2022-11-30T23:30:52.883Z,12.50
2022-11-30T23:33:22.694Z,12.60
2022-11-30T23:35:52.495Z,13.40
2022-11-30T23:38:24.800Z,13.40
2022-11-30T23:40:56.006Z,13.00
2022-11-30T23:43:25.798Z,11.80
2022-11-30T23:45:55.549Z,12.00
2022-11-30T23:48:25.416Z,11.80
2022-11-30T23:50:55.776Z,11.00
2022-11-30T23:53:28.689Z,10.80
2022-11-30T23:55:59.426Z,10.20
2022-11-30T23:58:29.151Z,10.30
